Time;durP1;ratioP1;P1;durP2;ratioP2;P2;SDS_P1;SDS_P2;PMS_P1;PMS_P2;Temp;Humidity;BMP_temperature;BMP_pressure;BME280_temperature;BME280_humidity;BME280_pressure;Samples;Min_cycle;Max_cycle;Signal;HPM_P1;HPM_P2
2021/11/13 00:00:38;;;;;;;4.43;1.70;;;;;;;2.30;100.00;101427.47;2578898;55;20519;-78
2021/11/13 00:03:06;;;;;;;2.20;1.73;;;;;;;2.33;100.00;101432.66;2579376;55;20551;-78
2021/11/13 00:05:35;;;;;;;3.60;1.25;;;;;;;2.33;100.00;101432.66;2579066;55;20135;-69
2021/11/13 00:08:04;;;;;;;2.12;1.20;;;;;;;2.26;100.00;101432.91;2578803;55;20622;-69
2021/11/13 00:10:33;;;;;;;3.67;2.65;;;;;;;2.35;100.00;101446.63;2578758;55;20161;-77
2021/11/13 00:13:05;;;;;;;1.77;1.48;;;;;;;2.32;100.00;101444.09;2578912;55;20642;-69
2021/11/13 00:15:33;;;;;;;2.37;1.60;;;;;;;2.31;100.00;101452.91;2578930;55;20120;-69
2021/11/13 00:18:01;;;;;;;2.78;1.40;;;;;;;2.31;100.00;101460.81;2578837;55;20125;-78
2021/11/13 00:20:30;;;;;;;3.90;2.00;;;;;;;2.28;100.00;101458.25;2578838;55;20143;-69
2021/11/13 00:23:01;;;;;;;3.50;1.45;;;;;;;2.19;100.00;101458.50;2578846;55;20115;-69
2021/11/13 00:25:30;;;;;;;2.62;1.30;;;;;;;2.27;100.00;101461.78;2578659;55;20123;-69
2021/11/13 00:27:58;;;;;;;4.95;1.67;;;;;;;2.18;100.00;101456.78;2573771;55;20216;-69
2021/11/13 00:30:26;;;;;;;3.42;1.85;;;;;;;2.28;100.00;101476.69;2579025;55;20117;-69
2021/11/13 00:32:54;;;;;;;2.33;1.30;;;;;;;2.32;100.00;101475.72;2579050;55;20134;-77
2021/11/13 00:35:22;;;;;;;2.10;1.58;;;;;;;2.32;100.00;101473.06;2578787;55;20129;-77
2021/11/13 00:37:50;;;;;;;2.80;1.48;;;;;;;2.39;100.00;101483.41;2579020;55;20117;-69
2021/11/13 00:40:20;;;;;;;1.80;1.62;;;;;;;2.36;100.00;101477.34;2578876;55;20120;-78
2021/11/13 00:42:49;;;;;;;1.92;1.50;;;;;;;2.26;100.00;101465.34;2578864;55;20489;-70
2021/11/13 00:45:17;;;;;;;4.20;1.60;;;;;;;2.39;100.00;101493.97;2578892;55;20121;-70
2021/11/13 00:47:45;;;;;;;5.50;1.85;;;;;;;2.40;100.00;101490.41;2578929;55;20114;-69
2021/11/13 00:50:13;;;;;;;4.57;1.35;;;;;;;2.24;100.00;101469.78;2573556;55;20127;-69
2021/11/13 00:52:42;;;;;;;3.90;1.92;;;;;;;2.37;100.00;101489.59;2578894;55;20157;-69
2021/11/13 00:55:13;;;;;;;5.72;1.90;;;;;;;2.43;100.00;101506.16;2578702;55;20106;-78
2021/11/13 00:57:41;;;;;;;2.97;1.77;;;;;;;2.44;100.00;101510.50;2578671;55;20109;-69
2021/11/13 01:00:13;;;;;;;8.20;1.95;;;;;;;2.47;100.00;101513.03;2578743;55;20513;-78
2021/11/13 01:02:41;;;;;;;5.30;1.98;;;;;;;2.46;100.00;101512.19;2578735;55;20113;-78
2021/11/13 01:05:09;;;;;;;5.60;2.08;;;;;;;2.55;100.00;101524.22;2573671;55;20112;-69
2021/11/13 01:07:37;;;;;;;6.35;1.60;;;;;;;2.51;100.00;101525.25;2578761;55;20121;-69
2021/11/13 01:10:08;;;;;;;4.75;1.77;;;;;;;2.49;100.00;101527.03;2578722;55;20121;-69
2021/11/13 01:12:37;;;;;;;9.13;1.85;;;;;;;2.42;100.00;101528.97;2578830;55;20168;-77
2021/11/13 01:15:07;;;;;;;5.78;2.55;;;;;;;2.57;100.00;101542.66;2578709;55;20508;-77
2021/11/13 01:17:37;;;;;;;4.87;1.85;;;;;;;2.54;100.00;101545.34;2578652;55;20123;-69
2021/11/13 01:20:06;;;;;;;4.87;1.98;;;;;;;2.47;100.00;101549.94;2573634;55;20659;-78
2021/11/13 01:22:38;;;;;;;5.35;1.85;;;;;;;2.44;100.00;101555.28;2578837;55;20148;-69
2021/11/13 01:25:07;;;;;;;4.35;1.85;;;;;;;2.51;100.00;101556.84;2578627;55;20114;-78
2021/11/13 01:27:34;;;;;;;5.62;2.22;;;;;;;2.53;100.00;101569.97;2578704;55;20118;-78
2021/11/13 01:30:04;;;;;;;5.50;2.30;;;;;;;2.56;100.00;101557.56;2578623;55;20631;-69
2021/11/13 01:32:32;;;;;;;3.58;1.60;;;;;;;2.54;100.00;101564.66;2578622;55;20125;-77
2021/11/13 01:35:01;;;;;;;2.85;1.70;;;;;;;2.57;100.00;101571.63;2578689;55;20128;-77
2021/11/13 01:37:29;;;;;;;3.65;1.70;;;;;;;2.54;100.00;101577.84;2578627;55;20121;-78
2021/11/13 01:39:57;;;;;;;4.25;2.08;;;;;;;2.49;100.00;101579.72;2578599;55;20101;-69
2021/11/13 01:42:26;;;;;;;5.53;1.80;;;;;;;2.46;100.00;101580.69;2578885;55;20650;-70
2021/11/13 01:44:54;;;;;;;4.70;1.70;;;;;;;2.43;100.00;101574.62;2578624;55;20625;-77
2021/11/13 01:47:23;;;;;;;3.15;1.67;;;;;;;2.44;100.00;101581.63;2573566;55;20110;-78
2021/11/13 01:49:51;;;;;;;10.63;2.25;;;;;;;2.43;100.00;101579.91;2578573;55;20113;-70
2021/11/13 01:52:21;;;;;;;4.85;1.90;;;;;;;2.34;100.00;101576.59;2578574;55;20154;-69
2021/11/13 01:54:49;;;;;;;3.33;1.95;;;;;;;2.39;100.00;101591.41;2578553;55;20117;-70
2021/11/13 01:57:21;;;;;;;3.80;2.10;;;;;;;2.33;100.00;101598.59;2578618;55;20131;-78
2021/11/13 01:59:51;;;;;;;3.87;1.95;;;;;;;2.29;100.00;101607.47;2578592;55;20132;-79
2021/11/13 02:02:20;;;;;;;4.87;2.20;;;;;;;2.29;100.00;101606.63;2578590;55;20116;-78
2021/11/13 02:04:48;;;;;;;3.80;2.05;;;;;;;2.31;100.00;101616.22;2578554;55;20543;-70
2021/11/13 02:07:15;;;;;;;3.53;1.85;;;;;;;2.30;100.00;101606.53;2578627;55;20130;-78
2021/11/13 02:09:44;;;;;;;2.65;1.80;;;;;;;2.32;100.00;101604.75;2578114;55;20110;-69
2021/11/13 02:12:12;;;;;;;4.82;1.77;;;;;;;2.35;100.00;101612.56;2578483;55;20142;-69
2021/11/13 02:14:40;;;;;;;2.67;2.10;;;;;;;2.35;100.00;101612.56;2573486;55;20109;-69
2021/11/13 02:17:08;;;;;;;3.72;2.00;;;;;;;2.37;100.00;101621.28;2578646;55;20113;-69
2021/11/13 02:19:36;;;;;;;6.25;2.30;;;;;;;2.42;100.00;101615.91;2578553;55;20109;-69
2021/11/13 02:22:05;;;;;;;4.47;2.30;;;;;;;2.44;100.00;101618.50;2578497;55;20109;-78
2021/11/13 02:24:33;;;;;;;2.95;2.08;;;;;;;2.46;100.00;101627.22;2578382;55;20121;-69
2021/11/13 02:27:01;;;;;;;3.65;2.22;;;;;;;2.47;100.00;101635.09;2578508;55;20135;-77
2021/11/13 02:29:29;;;;;;;3.25;1.75;;;;;;;2.47;100.00;101634.22;2578455;55;20110;-78
2021/11/13 02:31:57;;;;;;;3.33;2.08;;;;;;;2.54;100.00;101646.34;2578513;55;20489;-77
2021/11/13 02:34:25;;;;;;;5.45;2.30;;;;;;;2.55;100.00;101652.47;2578479;55;20508;-69
2021/11/13 02:36:54;;;;;;;4.35;2.95;;;;;;;2.52;100.00;101658.69;2578457;55;20390;-78
2021/11/13 02:39:23;;;;;;;2.42;1.77;;;;;;;2.56;100.00;101672.66;2578409;55;20121;-78
2021/11/13 02:41:51;;;;;;;4.82;1.80;;;;;;;2.53;100.00;101665.69;2578352;55;20121;-69
2021/11/13 02:44:19;;;;;;;4.12;2.03;;;;;;;2.49;100.00;101658.75;2573369;55;20113;-69
2021/11/13 02:46:47;;;;;;;4.47;2.00;;;;;;;2.50;100.00;101671.03;2578401;55;20122;-69
2021/11/13 02:49:16;;;;;;;4.70;1.67;;;;;;;2.41;100.00;101656.31;2578305;55;20124;-78
2021/11/13 02:51:46;;;;;;;4.07;2.10;;;;;;;2.42;100.00;101673.00;2578471;55;20124;-79
2021/11/13 02:54:13;;;;;;;2.92;2.05;;;;;;;2.32;100.00;101665.34;2578289;55;20121;-78
2021/11/13 02:56:43;;;;;;;2.12;1.45;;;;;;;2.23;100.00;101668.19;2573290;55;20128;-70
2021/11/13 02:59:11;;;;;;;2.78;1.70;;;;;;;2.16;100.00;101671.88;2578356;55;20679;-77
2021/11/13 03:01:39;;;;;;;2.28;1.75;;;;;;;2.15;100.00;101680.69;2578400;55;20116;-69
2021/11/13 03:04:07;;;;;;;4.15;1.77;;;;;;;2.13;100.00;101685.13;2573293;55;20127;-71
2021/11/13 03:06:35;;;;;;;2.65;1.98;;;;;;;2.06;100.00;101684.41;2578413;55;20128;-69
2021/11/13 03:09:02;;;;;;;4.20;2.30;;;;;;;1.98;100.00;101689.84;2578432;55;20548;-69
2021/11/13 03:11:32;;;;;;;3.17;1.80;;;;;;;1.91;100.00;101688.28;2578521;55;20387;-69
2021/11/13 03:14:01;;;;;;;4.65;1.80;;;;;;;1.92;100.00;101697.91;2578211;55;20637;-69
2021/11/13 03:16:29;;;;;;;2.42;1.80;;;;;;;1.91;100.00;101701.44;2578266;55;20178;-70
2021/11/13 03:18:57;;;;;;;2.58;1.75;;;;;;;1.84;100.00;101702.47;2578305;55;20110;-78
2021/11/13 03:21:24;;;;;;;4.35;2.35;;;;;;;1.76;100.00;101700.03;2578209;55;20516;-69
2021/11/13 03:23:52;;;;;;;3.50;2.75;;;;;;;1.68;100.00;101702.81;2578322;55;20600;-77
2021/11/13 03:26:22;;;;;;;3.53;1.80;;;;;;;1.65;100.00;101708.13;2578301;55;20619;-78
2021/11/13 03:28:58;;;;;;;2.65;1.95;;;;;;;1.61;100.00;101711.75;2578369;55;20117;-77
2021/11/13 03:31:28;;;;;;;3.55;1.98;;;;;;;1.60;100.00;101716.13;2578212;55;20124;-77
2021/11/13 03:33:57;;;;;;;4.97;2.62;;;;;;;1.61;100.00;101714.38;2578192;55;20124;-78
2021/11/13 03:36:25;;;;;;;3.92;2.03;;;;;;;1.60;100.00;101710.88;2578144;55;20180;-78
2021/11/13 03:38:54;;;;;;;3.20;1.98;;;;;;;1.68;100.00;101715.97;2578229;55;20627;-77
2021/11/13 03:41:23;;;;;;;5.80;2.10;;;;;;;1.71;100.00;101715.03;2578311;55;20101;-77
2021/11/13 03:43:51;;;;;;;8.88;2.65;;;;;;;1.69;100.00;101720.31;2578183;55;20125;-69
2021/11/13 03:46:20;;;;;;;5.57;2.20;;;;;;;1.72;100.00;101730.78;2578165;55;20117;-77
2021/11/13 03:48:52;;;;;;;5.90;2.22;;;;;;;1.73;100.00;101732.53;2578282;55;20639;-69
2021/11/13 03:51:21;;;;;;;3.92;1.98;;;;;;;1.78;100.00;101740.31;2578173;55;20113;-78
2021/11/13 03:53:49;;;;;;;2.15;1.60;;;;;;;1.85;100.00;101751.56;2578441;55;20128;-78
2021/11/13 03:56:18;;;;;;;7.12;2.08;;;;;;;1.91;100.00;101740.94;2578252;55;20162;-78
2021/11/13 03:58:46;;;;;;;4.43;1.90;;;;;;;1.91;100.00;101744.41;2578152;55;20139;-70
2021/11/13 04:01:14;;;;;;;4.07;2.10;;;;;;;1.95;100.00;101755.72;2578055;55;20645;-78
2021/11/13 04:03:42;;;;;;;2.53;1.90;;;;;;;1.93;100.00;101760.19;2578103;55;20114;-78
2021/11/13 04:06:11;;;;;;;2.70;1.95;;;;;;;1.97;100.00;101761.81;2578041;55;20101;-69
2021/11/13 04:08:39;;;;;;;4.85;2.22;;;;;;;1.96;100.00;101762.72;2578296;55;20485;-77
2021/11/13 04:11:07;;;;;;;3.75;3.05;;;;;;;2.02;100.00;101775.75;2578049;55;20113;-69
2021/11/13 04:13:34;;;;;;;5.62;2.35;;;;;;;2.00;100.00;101768.78;2573013;55;20128;-77
2021/11/13 04:16:02;;;;;;;4.40;2.28;;;;;;;1.99;100.00;101767.91;2578298;55;20109;-70
2021/11/13 04:18:33;;;;;;;4.28;2.35;;;;;;;1.99;100.00;101770.53;2578147;55;20208;-69
2021/11/13 04:21:01;;;;;;;6.15;2.20;;;;;;;2.01;100.00;101771.41;2578206;55;20650;-78
2021/11/13 04:23:30;;;;;;;4.85;3.30;;;;;;;2.02;100.00;101781.03;2578080;55;20105;-77
2021/11/13 04:25:59;;;;;;;5.47;2.20;;;;;;;2.01;100.00;101779.31;2577963;55;20172;-77
2021/11/13 04:28:27;;;;;;;3.53;2.15;;;;;;;2.02;100.00;101781.03;2577996;55;20110;-78
2021/11/13 04:30:54;;;;;;;3.62;2.40;;;;;;;1.97;100.00;101790.78;2577992;55;20131;-69
2021/11/13 04:33:22;;;;;;;4.00;2.20;;;;;;;1.98;100.00;101795.13;2578566;55;20577;-69
2021/11/13 04:36:02;;;;;;;4.57;3.05;;;;;;;1.95;100.00;101787.31;2579007;55;20116;-78
2021/11/13 04:38:34;;;;;;;4.12;2.97;;;;;;;1.96;100.00;101786.41;2578888;55;20128;-69
2021/11/13 04:41:04;;;;;;;5.78;2.50;;;;;;;1.92;100.00;101796.16;2578993;55;20116;-78
2021/11/13 04:43:32;;;;;;;7.47;2.40;;;;;;;1.87;100.00;101786.63;2578809;55;20761;-78
2021/11/13 04:46:00;;;;;;;3.72;1.98;;;;;;;1.85;100.00;101791.06;2579023;55;20113;-78
2021/11/13 04:48:28;;;;;;;4.40;1.80;;;;;;;1.80;100.00;101789.41;2578871;55;20117;-69
2021/11/13 04:50:57;;;;;;;2.78;1.83;;;;;;;1.75;100.00;101790.38;2573569;55;20124;-77
2021/11/13 04:53:25;;;;;;;3.53;2.33;;;;;;;1.68;100.00;101797.53;2578681;55;20124;-78
2021/11/13 04:55:54;;;;;;;4.15;2.20;;;;;;;1.64;100.00;101801.12;2578879;55;20499;-70
2021/11/13 04:58:22;;;;;;;3.97;1.70;;;;;;;1.59;100.00;101808.22;2578749;55;20123;-69
2021/11/13 05:00:50;;;;;;;4.05;2.20;;;;;;;1.61;100.00;101812.56;2578820;55;20132;-69
2021/11/13 05:03:18;;;;;;;3.80;2.65;;;;;;;1.56;100.00;101819.72;2573700;55;20658;-78
2021/11/13 05:05:46;;;;;;;4.80;2.60;;;;;;;1.55;100.00;101817.09;2578629;55;20117;-69
2021/11/13 05:08:14;;;;;;;3.58;1.98;;;;;;;1.51;100.00;101816.28;2578687;55;20627;-69
2021/11/13 05:10:41;;;;;;;2.50;2.00;;;;;;;1.50;100.00;101827.72;2578781;55;20651;-70
2021/11/13 05:13:12;;;;;;;3.75;2.03;;;;;;;1.52;100.00;101824.16;2578875;55;20116;-78
2021/11/13 05:15:39;;;;;;;3.05;2.15;;;;;;;1.51;100.00;101838.22;2578669;55;20119;-77
2021/11/13 05:18:07;;;;;;;3.25;2.10;;;;;;;1.42;100.00;101834.88;2578801;55;20117;-69
2021/11/13 05:20:35;;;;;;;2.70;1.95;;;;;;;1.33;100.00;101830.66;2578603;55;20147;-78
2021/11/13 05:23:04;;;;;;;3.35;1.98;;;;;;;1.23;100.00;101840.47;2578704;55;20109;-77
2021/11/13 05:25:32;;;;;;;4.70;2.30;;;;;;;1.18;100.00;101830.03;2578687;55;20634;-68
2021/11/13 05:28:00;;;;;;;3.60;2.25;;;;;;;1.11;100.00;101841.56;2578746;55;20699;-68
2021/11/13 05:30:29;;;;;;;4.40;2.20;;;;;;;1.10;100.00;101840.69;2578570;55;20500;-77
2021/11/13 05:32:57;;;;;;;3.40;2.12;;;;;;;1.07;100.00;101847.75;2578725;55;20116;-77
2021/11/13 05:35:25;;;;;;;2.83;2.00;;;;;;;1.05;100.00;101849.56;2578584;55;20131;-77
2021/11/13 05:37:54;;;;;;;2.72;1.90;;;;;;;1.03;100.00;101848.72;2578589;55;20128;-77
2021/11/13 05:40:23;;;;;;;3.90;2.42;;;;;;;0.95;100.00;101844.44;2578519;55;20160;-77
2021/11/13 05:42:52;;;;;;;4.07;2.67;;;;;;;0.88;100.00;101853.31;2578679;55;20132;-69
2021/11/13 05:45:20;;;;;;;4.03;2.37;;;;;;;0.78;100.00;101849.09;2578533;55;20509;-69
2021/11/13 05:47:50;;;;;;;4.65;3.25;;;;;;;0.68;100.00;101848.41;2578702;55;20158;-77
2021/11/13 05:50:20;;;;;;;4.18;3.10;;;;;;;0.60;100.00;101856.41;2573247;55;20612;-68
2021/11/13 05:52:50;;;;;;;5.15;3.65;;;;;;;0.52;100.00;101866.16;2573680;55;20136;-77
2021/11/13 05:55:19;;;;;;;6.55;2.42;;;;;;;0.36;100.00;101855.00;2578674;55;20174;-70
2021/11/13 05:57:47;;;;;;;3.83;1.92;;;;;;;0.30;100.00;101862.94;2578523;55;20132;-69
2021/11/13 06:00:17;;;;;;;3.05;2.15;;;;;;;0.26;100.00;101864.75;2578521;55;20113;-77
2021/11/13 06:02:46;;;;;;;4.78;1.70;;;;;;;0.15;100.00;101854.41;2578501;55;20102;-68
2021/11/13 06:05:15;;;;;;;3.87;1.87;;;;;;;0.06;100.00;101860.63;2578489;55;20105;-77
2021/11/13 06:07:43;;;;;;;4.62;2.42;;;;;;;-0.04;100.00;101877.37;2578424;55;20113;-68
2021/11/13 06:10:13;;;;;;;5.82;1.80;;;;;;;-0.14;100.00;101874.00;2578394;55;20118;-77
2021/11/13 06:12:42;;;;;;;4.65;1.42;;;;;;;-0.20;100.00;101874.94;2578480;55;20138;-68
2021/11/13 06:15:12;;;;;;;2.42;1.52;;;;;;;-0.30;100.00;101862.78;2578449;55;20112;-69
2021/11/13 06:17:40;;;;;;;6.07;1.73;;;;;;;-0.36;100.00;101868.13;2573454;55;20499;-69
2021/11/13 06:20:09;;;;;;;2.08;1.50;;;;;;;-0.38;100.00;101867.28;2578458;55;20539;-70
2021/11/13 06:22:39;;;;;;;3.95;1.95;;;;;;;-0.42;100.00;101874.31;2578459;55;20109;-78
2021/11/13 06:25:08;;;;;;;3.75;1.90;;;;;;;-0.46;100.00;101875.22;2578425;55;20109;-74
2021/11/13 06:27:37;;;;;;;7.72;3.30;;;;;;;-0.48;100.00;101892.72;2578421;55;20109;-69
2021/11/13 06:30:06;;;;;;;3.05;2.00;;;;;;;-0.48;100.00;101893.59;2578505;55;20120;-78
2021/11/13 06:32:34;;;;;;;6.80;2.60;;;;;;;-0.42;100.00;101909.25;2578249;55;20499;-78
2021/11/13 06:35:02;;;;;;;4.00;2.00;;;;;;;-0.32;100.00;101907.41;2578460;55;20647;-69
2021/11/13 06:37:30;;;;;;;3.85;2.33;;;;;;;-0.13;100.00;101919.47;2578374;55;20125;-77
2021/11/13 06:40:00;;;;;;;4.55;2.10;;;;;;;-0.01;100.00;101921.94;2582307;55;20627;-69
2021/11/13 06:42:28;;;;;;;3.05;1.95;;;;;;;0.16;100.00;101920.88;2583449;55;20097;-78
2021/11/13 06:44:56;;;;;;;4.90;1.98;;;;;;;0.30;100.00;101924.22;2583485;55;20623;-78
2021/11/13 06:47:24;;;;;;;4.28;1.87;;;;;;;0.37;100.00;101930.25;2583522;55;20623;-77
2021/11/13 06:49:56;;;;;;;3.92;2.05;;;;;;;0.38;100.00;101927.59;2583750;55;20109;-78
2021/11/13 06:52:24;;;;;;;9.32;4.60;;;;;;;0.31;100.00;101898.81;2583545;55;20109;-69
2021/11/13 06:54:52;;;;;;;34.55;18.70;;;;;;;0.53;100.00;101931.78;2583561;55;20147;-77
2021/11/13 06:57:21;;;;;;;23.12;13.60;;;;;;;0.67;100.00;101934.22;2583755;55;20109;-78
2021/11/13 06:59:49;;;;;;;18.65;9.65;;;;;;;0.76;100.00;101934.97;2583469;55;20113;-78
2021/11/13 07:02:17;;;;;;;17.87;9.70;;;;;;;0.82;100.00;101940.16;2583474;55;20131;-78
2021/11/13 07:04:45;;;;;;;19.80;9.75;;;;;;;0.87;100.00;101942.72;2583466;55;20119;-78
2021/11/13 07:07:13;;;;;;;22.50;10.65;;;;;;;0.87;100.00;101938.31;2583472;55;20496;-70
2021/11/13 07:09:42;;;;;;;12.73;5.75;;;;;;;0.89;100.00;101941.78;2583484;55;20109;-78
2021/11/13 07:12:10;;;;;;;5.00;2.70;;;;;;;0.90;100.00;101938.28;2583478;55;20117;-78
2021/11/13 07:14:39;;;;;;;52.15;23.73;;;;;;;0.93;100.00;101938.22;2578478;55;20101;-69
2021/11/13 07:17:07;;;;;;;53.78;26.33;;;;;;;0.94;100.00;101941.72;2578304;55;20647;-70
2021/11/13 07:19:35;;;;;;;93.00;42.20;;;;;;;0.89;100.00;101954.91;2583463;55;20125;-78
2021/11/13 07:22:03;;;;;;;53.17;22.33;;;;;;;0.85;100.00;101961.12;2583496;55;20173;-77
2021/11/13 07:24:31;;;;;;;27.15;13.43;;;;;;;0.83;100.00;101949.75;2583540;55;20142;-77
2021/11/13 07:26:59;;;;;;;33.28;15.73;;;;;;;0.79;100.00;101953.31;2583724;55;20105;-70
2021/11/13 07:29:28;;;;;;;39.70;19.37;;;;;;;0.78;100.00;101962.09;2583384;55;20615;-69
2021/11/13 07:31:58;;;;;;;25.52;11.90;;;;;;;0.75;100.00;101967.41;2583479;55;20125;-78
2021/11/13 07:34:25;;;;;;;21.30;10.55;;;;;;;0.69;100.00;101969.19;2583315;55;20663;-69
2021/11/13 07:36:53;;;;;;;17.40;8.20;;;;;;;0.72;100.00;101980.59;2583403;55;20097;-70
2021/11/13 07:39:21;;;;;;;13.52;7.50;;;;;;;0.72;100.00;101975.31;2578307;55;20161;-69
2021/11/13 07:41:49;;;;;;;15.77;7.43;;;;;;;0.73;100.00;101979.69;2583450;55;20534;-70
2021/11/13 07:44:17;;;;;;;19.50;8.68;;;;;;;0.72;100.00;101983.22;2583485;55;20522;-78
2021/11/13 07:46:46;;;;;;;20.35;10.55;;;;;;;0.73;100.00;101984.94;2583436;55;20121;-69
2021/11/13 07:49:15;;;;;;;19.42;10.35;;;;;;;0.65;100.00;101985.91;2583291;55;20628;-69
2021/11/13 07:51:43;;;;;;;18.17;13.75;;;;;;;0.66;100.00;101989.41;2583374;55;20121;-78
2021/11/13 07:54:11;;;;;;;34.97;23.20;;;;;;;0.65;100.00;101991.16;2578206;55;20145;-70
2021/11/13 07:56:39;;;;;;;25.20;17.37;;;;;;;0.72;100.00;101999.81;2583375;55;20561;-70
2021/11/13 07:59:07;;;;;;;26.62;16.15;;;;;;;0.77;100.00;101998.03;2583489;55;20154;-70
2021/11/13 08:01:34;;;;;;;24.20;15.60;;;;;;;0.82;100.00;102011.09;2578270;55;20619;-77
2021/11/13 08:04:03;;;;;;;37.92;21.95;;;;;;;0.88;100.00;102008.38;2583222;55;20113;-70
2021/11/13 08:06:32;;;;;;;28.50;18.65;;;;;;;0.96;100.00;102018.78;2583312;55;20123;-78
2021/11/13 08:09:00;;;;;;;28.92;18.40;;;;;;;0.99;100.00;102017.84;2584052;55;20108;-78
2021/11/13 08:11:30;;;;;;;28.87;16.87;;;;;;;1.05;100.00;102012.53;2583991;55;20518;-70
2021/11/13 08:13:58;;;;;;;27.45;17.05;;;;;;;1.14;100.00;102028.16;2583953;55;20649;-78
2021/11/13 08:16:27;;;;;;;86.45;44.40;;;;;;;1.17;100.00;102025.47;2584059;55;20105;-77
2021/11/13 08:18:55;;;;;;;180.80;88.68;;;;;;;1.21;100.00;102024.56;2583927;55;20124;-78
2021/11/13 08:21:23;;;;;;;123.13;62.60;;;;;;;1.28;100.00;102024.47;2578969;55;20109;-78
2021/11/13 08:23:53;;;;;;;103.90;54.03;;;;;;;1.33;100.00;102033.16;2584091;55;20119;-70
2021/11/13 08:26:21;;;;;;;130.90;67.18;;;;;;;1.35;100.00;102031.38;2584216;55;20116;-78
2021/11/13 08:28:49;;;;;;;160.68;81.72;;;;;;;1.39;100.00;102036.56;2584128;55;20506;-70
2021/11/13 08:31:16;;;;;;;131.60;70.05;;;;;;;1.47;100.00;102046.09;2584031;55;20121;-78
2021/11/13 08:33:44;;;;;;;101.82;54.25;;;;;;;1.53;100.00;102049.50;2583900;55;20631;-70
2021/11/13 08:36:12;;;;;;;69.32;39.92;;;;;;;1.60;100.00;102052.00;2583883;55;20666;-70
2021/11/13 08:38:41;;;;;;;50.58;28.95;;;;;;;1.64;100.00;102057.19;2579239;55;20662;-78
2021/11/13 08:41:10;;;;;;;40.80;25.92;;;;;;;1.70;100.00;102063.28;2584150;55;20130;-78
2021/11/13 08:43:38;;;;;;;35.72;19.45;;;;;;;1.71;100.00;102063.25;2578325;55;20155;-78
2021/11/13 08:46:06;;;;;;;22.13;13.70;;;;;;;1.77;100.00;102064.91;2575039;55;20127;-77
2021/11/13 08:48:34;;;;;;;15.25;9.52;;;;;;;1.86;100.00;102071.78;2576257;55;20114;-78
2021/11/13 08:51:02;;;;;;;7.22;4.45;;;;;;;1.97;100.00;102067.19;2577133;55;20113;-70
2021/11/13 08:53:29;;;;;;;8.90;5.70;;;;;;;2.07;100.00;102068.75;2576884;55;20526;-70
2021/11/13 08:55:57;;;;;;;3.62;2.60;;;;;;;2.16;100.00;102075.66;2575368;55;20140;-76
2021/11/13 08:58:27;;;;;;;8.73;4.00;;;;;;;2.27;100.00;102074.59;2577661;55;20143;-76
2021/11/13 09:00:57;;;;;;;7.60;4.32;;;;;;;2.32;100.00;102080.63;2572291;55;20120;-70
2021/11/13 09:03:27;;;;;;;10.15;5.70;;;;;;;2.37;100.00;102084.91;2573022;55;20106;-69
2021/11/13 09:05:57;;;;;;;6.53;3.17;;;;;;;2.34;100.00;102070.91;2573084;55;20094;-69
2021/11/13 09:08:25;;;;;;;2.53;1.55;;;;;;;2.44;100.00;102084.81;2573094;55;20669;-69
2021/11/13 09:10:54;;;;;;;4.62;3.12;;;;;;;2.54;100.00;102091.63;2574419;55;20538;-69
2021/11/13 09:13:25;;;;;;;6.12;3.75;;;;;;;2.56;100.00;102092.47;2572865;55;20625;-69
2021/11/13 09:15:56;;;;;;;11.77;5.43;;;;;;;2.56;100.00;102103.00;2572815;55;20128;-70
2021/11/13 09:18:25;;;;;;;7.43;4.32;;;;;;;2.59;100.00;102102.94;2572751;55;20119;-70
2021/11/13 09:20:53;;;;;;;9.43;5.78;;;;;;;2.64;100.00;102105.47;2567774;55;20458;-69
2021/11/13 09:23:21;;;;;;;4.30;2.92;;;;;;;2.62;100.00;102096.75;2573716;55;20495;-69
2021/11/13 09:25:50;;;;;;;4.15;2.87;;;;;;;2.62;100.00;102108.16;2577400;55;20669;-69
2021/11/13 09:28:18;;;;;;;6.57;1.87;;;;;;;2.61;100.00;102113.44;2575028;55;20132;-69
2021/11/13 09:30:46;;;;;;;5.97;3.60;;;;;;;2.61;100.00;102111.69;2572979;55;20150;-68
2021/11/13 09:33:15;;;;;;;2.15;1.90;;;;;;;2.57;100.00;102115.28;2572960;55;20155;-68
2021/11/13 09:35:45;;;;;;;3.75;2.15;;;;;;;2.55;100.00;102110.94;2574348;55;20106;-75
2021/11/13 09:38:13;;;;;;;6.45;2.62;;;;;;;2.56;100.00;102113.53;2572877;55;20110;-75
2021/11/13 09:40:41;;;;;;;4.32;2.28;;;;;;;2.50;100.00;102111.00;2572856;55;20118;-75
2021/11/13 09:43:11;;;;;;;3.22;1.08;;;;;;;2.49;100.00;102106.62;2573603;55;20117;-69
2021/11/13 09:45:39;;;;;;;1.00;0.85;;;;;;;2.53;100.00;102110.09;2574150;55;20124;-69
2021/11/13 09:48:08;;;;;;;3.47;1.02;;;;;;;2.55;100.00;102111.81;2573795;55;20568;-69
2021/11/13 09:50:40;;;;;;;2.90;1.50;;;;;;;2.59;100.00;102124.00;2572817;55;20130;-69
2021/11/13 09:53:09;;;;;;;1.55;1.35;;;;;;;2.60;100.00;102124.91;2573756;55;20123;-76
2021/11/13 09:55:38;;;;;;;2.40;1.83;;;;;;;2.57;100.00;102120.53;2574553;55;21711;-69
2021/11/13 09:58:06;;;;;;;3.55;2.17;;;;;;;2.62;100.00;102129.25;2572743;55;20128;-69
2021/11/13 10:00:37;;;;;;;6.87;4.37;;;;;;;2.66;100.00;102129.19;2574021;55;20128;-69
2021/11/13 10:03:06;;;;;;;3.75;2.47;;;;;;;2.68;100.00;102130.00;2570375;55;20118;-76
2021/11/13 10:05:35;;;;;;;4.00;2.20;;;;;;;2.68;100.00;102130.00;2578363;55;20166;-77
2021/11/13 10:08:05;;;;;;;3.83;3.17;;;;;;;2.75;100.00;102139.53;2579173;55;20123;-75
2021/11/13 10:10:35;;;;;;;3.25;2.72;;;;;;;2.72;100.00;102140.47;2576623;55;20531;-75
2021/11/13 10:13:04;;;;;;;3.97;2.92;;;;;;;2.72;100.00;102142.25;2576318;55;20128;-75
2021/11/13 10:15:36;;;;;;;4.40;2.80;;;;;;;2.77;100.00;102143.91;2575604;55;20121;-76
2021/11/13 10:18:13;;;;;;;6.62;4.25;;;;;;;2.79;100.00;102146.47;2576111;55;20106;-77
2021/11/13 10:20:43;;;;;;;7.55;5.60;;;;;;;2.81;100.00;102149.97;2575989;55;20826;-75
2021/11/13 10:23:19;;;;;;;1.95;1.80;;;;;;;2.82;100.00;102140.28;2576022;55;20271;-75
2021/11/13 10:25:59;;;;;;;2.72;2.45;;;;;;;2.87;100.00;102149.00;2577242;55;20409;-75
2021/11/13 10:28:28;;;;;;;2.58;2.08;;;;;;;2.78;100.00;102148.28;2575380;55;20173;-75
2021/11/13 10:31:08;;;;;;;5.25;2.50;;;;;;;2.78;100.00;102161.44;2574298;55;20134;-76
2021/11/13 10:33:36;;;;;;;9.25;4.68;;;;;;;2.74;100.00;102149.22;2575790;55;20236;-76
2021/11/13 10:36:04;;;;;;;10.68;5.68;;;;;;;2.76;100.00;102154.47;2575930;55;20645;-76
2021/11/13 10:38:34;;;;;;;6.47;5.00;;;;;;;2.77;100.00;102154.44;2575900;55;20117;-75
2021/11/13 10:41:05;;;;;;;4.68;2.92;;;;;;;2.77;100.00;102151.81;2575930;55;20633;-74
2021/11/13 10:43:38;;;;;;;6.18;3.10;;;;;;;2.77;100.00;102146.53;2573599;55;20665;-75
2021/11/13 10:46:09;;;;;;;5.85;3.55;;;;;;;2.71;100.00;102156.34;2573749;55;20117;-75
2021/11/13 10:48:39;;;;;;;6.95;3.87;;;;;;;2.74;100.00;102156.25;2575260;55;20123;-75
2021/11/13 10:51:11;;;;;;;2.00;1.70;;;;;;;2.70;100.00;102162.47;2573974;55;20685;-74
2021/11/13 10:53:42;;;;;;;4.18;2.58;;;;;;;2.74;100.00;102166.81;2574368;55;20130;-75
2021/11/13 10:56:19;;;;;;;3.42;2.17;;;;;;;2.82;100.00;102167.53;2572716;55;20113;-74
2021/11/13 10:58:55;;;;;;;2.78;2.30;;;;;;;2.80;100.00;102165.81;2570242;55;20106;-75
2021/11/13 11:01:35;;;;;;;3.33;2.80;;;;;;;2.81;100.00;102173.72;2567020;55;20138;-75
2021/11/13 11:04:09;;;;;;;7.03;3.92;;;;;;;2.81;100.00;102176.34;2573731;55;20136;-75
2021/11/13 11:06:38;;;;;;;8.95;4.65;;;;;;;2.75;100.00;102176.44;2573798;55;20547;-75
2021/11/13 11:09:29;;;;;;;7.50;4.57;;;;;;;2.80;100.00;102179.00;2574613;55;20143;-74
2021/11/13 11:11:59;;;;;;;7.00;4.47;;;;;;;2.72;100.00;102185.28;2574958;55;20133;-75
2021/11/13 11:14:29;;;;;;;3.92;3.30;;;;;;;2.72;100.00;102189.69;2574587;55;20143;-74
2021/11/13 11:16:59;;;;;;;6.35;4.57;;;;;;;2.70;100.00;102184.44;2575214;55;20143;-74
2021/11/13 11:19:29;;;;;;;5.40;2.45;;;;;;;2.69;100.00;102184.47;2574642;55;20125;-75
2021/11/13 11:22:00;;;;;;;5.32;2.67;;;;;;;2.70;100.00;102183.56;2574970;55;20768;-76
2021/11/13 11:24:34;;;;;;;7.37;1.85;;;;;;;2.76;100.00;102183.47;2569735;55;20117;-78
2021/11/13 11:27:08;;;;;;;4.00;2.30;;;;;;;2.81;100.00;102192.16;2575336;55;20129;-75
2021/11/13 11:29:39;;;;;;;6.40;1.95;;;;;;;2.77;100.00;102190.47;2575016;55;20116;-75